オラニエスタッド の空港の天気 - METARとTAF

クィーン・ベアトリクス国際空港 ( TNCA / AUA ) - アルバ オラニエスタッド
飛行場実況気象(Metar)
観測時間10/18 04:00 AST (10/18 08:00 UTC)
風向・風速東 5m/s
視程10km以上
天気現象
全天の4割程度の雲 雲底高度 520m
気温28℃
湿度79%
気圧1010hPa
METARTNCA 180800Z 08010KT 9999 SCT017 28/24 Q1010 NOSIG
過去の天気等 Google飛行場航空写真 Wunderground天気予報

過去48時間のMETAR

飛行場予報(TAF)
発表時間: 10/18 01:15 AST (10/18 05:15 UTC)
予報対象時間: 18日2時 AST ~ 19日2時 AST
風向・風速東 6m/s
視程10km以上
少しの雲 雲底高度 550m
18日2時 AST ~ 18日12時 AST に 確率 30% で一時的に
視程5000m
天気現象しゅう雨
少しの積乱雲 雲底高度 370m
全天の8割程度の雲 雲底高度 430m
TAF TNCA 180515Z 1806/1906 08012KT 9999 FEW018
PROB30 TEMPO 1806/1816 5000 SHRA FEW012CB BKN014